Time;durP1;ratioP1;P1;durP2;ratioP2;P2;SDS_P1;SDS_P2;PMS_P1;PMS_P2;Temp;Humidity;BMP_temperature;BMP_pressure;BME280_temperature;BME280_humidity;BME280_pressure;Samples;Min_cycle;Max_cycle;Signal;HPM_P1;HPM_P2
2023/01/28 00:01:20;;;;;;;10.52;8.75;;;;;;;;;;5111276;28;20923;-76
2023/01/28 00:03:51;;;;;;;10.88;8.75;;;;;;;;;;5101106;28;20411;-76
2023/01/28 00:06:17;;;;;;;10.90;8.98;;;;;;;;;;5123616;27;20416;-76
2023/01/28 00:08:44;;;;;;;12.93;9.65;;;;;;;;;;5113679;27;20495;-76
2023/01/28 00:11:11;;;;;;;12.60;9.55;;;;;;;;;;5095168;28;20392;-76
2023/01/28 00:13:37;;;;;;;12.40;9.15;;;;;;;;;;5111562;27;20416;-76
2023/01/28 00:16:04;;;;;;;12.20;9.50;;;;;;;;;;5093608;27;20449;-75
2023/01/28 00:18:31;;;;;;;12.45;9.45;;;;;;;;;;5117636;27;20411;-76
2023/01/28 00:21:00;;;;;;;11.80;9.00;;;;;;;;;;5131988;27;20403;-76
2023/01/28 00:23:28;;;;;;;13.07;9.88;;;;;;;;;;5096312;28;20432;-76
2023/01/28 00:25:54;;;;;;;13.68;10.63;;;;;;;;;;5093773;28;20419;-76
2023/01/28 00:28:23;;;;;;;13.38;10.55;;;;;;;;;;5118903;27;20502;-76
2023/01/28 00:30:49;;;;;;;14.63;10.73;;;;;;;;;;5110586;27;20548;-76
2023/01/28 00:33:15;;;;;;;12.55;9.75;;;;;;;;;;5102504;27;20886;-76
2023/01/28 00:35:41;;;;;;;13.23;10.52;;;;;;;;;;5130750;27;20451;-76
2023/01/28 00:38:07;;;;;;;14.30;10.10;;;;;;;;;;5119751;27;20415;-76
2023/01/28 00:40:34;;;;;;;13.77;10.37;;;;;;;;;;5115114;27;20469;-76
2023/01/28 00:43:00;;;;;;;12.82;9.82;;;;;;;;;;5111138;28;20409;-75
2023/01/28 00:45:26;;;;;;;11.35;8.85;;;;;;;;;;5093682;28;20442;-75
2023/01/28 00:47:52;;;;;;;11.63;8.73;;;;;;;;;;5116861;27;20495;-76
2023/01/28 00:50:20;;;;;;;12.02;9.35;;;;;;;;;;5103879;27;20778;-76
2023/01/28 00:52:46;;;;;;;11.73;8.98;;;;;;;;;;5096864;27;20902;-76
2023/01/28 00:55:14;;;;;;;11.07;9.00;;;;;;;;;;5111717;27;21266;-76
2023/01/28 00:57:40;;;;;;;11.63;9.15;;;;;;;;;;5108203;27;20475;-75
2023/01/28 01:00:07;;;;;;;11.77;9.38;;;;;;;;;;5120750;27;20419;-76
2023/01/28 01:02:33;;;;;;;10.80;8.30;;;;;;;;;;5125124;27;20415;-76
2023/01/28 01:04:59;;;;;;;11.05;8.90;;;;;;;;;;5105051;27;20446;-76
2023/01/28 01:07:40;;;;;;;11.75;8.95;;;;;;;;;;5106168;28;20419;-76
2023/01/28 01:10:06;;;;;;;10.65;8.65;;;;;;;;;;5101954;28;20559;-75
2023/01/28 01:12:33;;;;;;;11.30;9.32;;;;;;;;;;5093932;28;20424;-76
2023/01/28 01:14:59;;;;;;;11.35;9.40;;;;;;;;;;5090809;28;20804;-76
2023/01/28 01:17:25;;;;;;;12.20;9.30;;;;;;;;;;5119521;28;20786;-76
2023/01/28 01:19:51;;;;;;;12.07;9.43;;;;;;;;;;5110978;27;20802;-79
2023/01/28 01:22:17;;;;;;;11.07;8.73;;;;;;;;;;5123141;28;20419;-79
2023/01/28 01:24:43;;;;;;;10.90;8.80;;;;;;;;;;5096982;28;20421;-80
2023/01/28 01:27:09;;;;;;;11.30;9.45;;;;;;;;;;5103724;28;20424;-80
2023/01/28 01:29:35;;;;;;;12.13;9.53;;;;;;;;;;5109066;28;20517;-79
2023/01/28 01:32:01;;;;;;;11.70;9.50;;;;;;;;;;5110775;28;20416;-79
2023/01/28 01:34:27;;;;;;;11.65;9.48;;;;;;;;;;5111626;28;20421;-79
2023/01/28 01:36:53;;;;;;;11.15;9.23;;;;;;;;;;5099283;27;20399;-79
2023/01/28 01:39:20;;;;;;;12.32;9.63;;;;;;;;;;5133599;27;20489;-79
2023/01/28 01:41:46;;;;;;;13.73;9.82;;;;;;;;;;5128601;27;21092;-79
2023/01/28 01:44:30;;;;;;;12.02;9.80;;;;;;;;;;5116352;27;20414;-80
2023/01/28 01:46:57;;;;;;;12.93;9.43;;;;;;;;;;5121960;27;20416;-79
2023/01/28 01:49:24;;;;;;;11.63;8.75;;;;;;;;;;5106555;27;20435;-79
2023/01/28 01:52:10;;;;;;;11.80;9.10;;;;;;;;;;5127373;27;20410;-79
2023/01/28 01:54:37;;;;;;;11.48;9.20;;;;;;;;;;5113888;27;20453;-79
2023/01/28 01:57:04;;;;;;;10.73;8.43;;;;;;;;;;5098504;28;20419;-79
2023/01/28 01:59:31;;;;;;;10.18;8.00;;;;;;;;;;5095817;27;20415;-79
2023/01/28 02:01:59;;;;;;;11.18;9.02;;;;;;;;;;5113793;27;20437;-79
2023/01/28 02:04:27;;;;;;;11.20;8.75;;;;;;;;;;5098814;27;20576;-80
2023/01/28 02:06:53;;;;;;;12.23;8.40;;;;;;;;;;5120362;27;20419;-80
2023/01/28 02:09:22;;;;;;;11.00;8.23;;;;;;;;;;5114609;27;20418;-79
2023/01/28 02:11:49;;;;;;;11.00;8.18;;;;;;;;;;5131856;27;20411;-79
2023/01/28 02:14:15;;;;;;;10.75;7.85;;;;;;;;;;5133898;27;20421;-80
2023/01/28 02:16:41;;;;;;;10.47;8.23;;;;;;;;;;5105480;27;20518;-80
2023/01/28 02:19:08;;;;;;;10.77;8.30;;;;;;;;;;5101427;28;20418;-79
2023/01/28 02:21:40;;;;;;;10.73;8.73;;;;;;;;;;5126531;27;20418;-79
2023/01/28 02:24:28;;;;;;;10.27;8.63;;;;;;;;;;5115030;27;20420;-79
2023/01/28 02:27:11;;;;;;;10.13;7.90;;;;;;;;;;5115136;27;20411;-79
2023/01/28 02:29:51;;;;;;;11.50;9.07;;;;;;;;;;5112760;27;20441;-80
2023/01/28 02:32:20;;;;;;;9.85;8.15;;;;;;;;;;5115683;27;20407;-79
2023/01/28 02:35:09;;;;;;;9.80;7.73;;;;;;;;;;5096169;28;20980;-79
2023/01/28 02:37:42;;;;;;;10.00;7.88;;;;;;;;;;5092194;27;20414;-79
2023/01/28 02:40:10;;;;;;;9.20;7.22;;;;;;;;;;5101307;27;20414;-80
2023/01/28 02:42:37;;;;;;;9.88;6.95;;;;;;;;;;5108553;27;20435;-80
2023/01/28 02:45:11;;;;;;;8.52;6.93;;;;;;;;;;5134122;27;20394;-79
2023/01/28 02:50:21;;;;;;;8.57;6.72;;;;;;;;;;5108278;27;20410;-79
2023/01/28 02:55:44;;;;;;;9.73;7.57;;;;;;;;;;5127381;27;20418;-76
2023/01/28 02:58:18;;;;;;;10.82;7.72;;;;;;;;;;5114051;27;20438;-75
2023/01/28 03:00:49;;;;;;;10.40;8.07;;;;;;;;;;5095584;28;20887;-75
2023/01/28 03:03:15;;;;;;;10.90;8.13;;;;;;;;;;5096571;28;20756;-76
2023/01/28 03:06:07;;;;;;;8.95;7.25;;;;;;;;;;5121992;27;20411;-75
2023/01/28 03:38:55;;;;;;;12.38;8.93;;;;;;;;;;5113440;27;20416;-75
2023/01/28 03:41:22;;;;;;;13.43;9.65;;;;;;;;;;5097271;28;20911;-75
2023/01/28 03:43:49;;;;;;;12.20;9.40;;;;;;;;;;5116930;27;20427;-75
2023/01/28 03:46:15;;;;;;;11.10;8.98;;;;;;;;;;5113113;27;20400;-76
2023/01/28 03:48:41;;;;;;;13.32;9.18;;;;;;;;;;5114063;27;20428;-75
2023/01/28 03:51:07;;;;;;;10.68;8.40;;;;;;;;;;5112830;27;20412;-75
2023/01/28 03:53:33;;;;;;;11.25;8.95;;;;;;;;;;5095118;28;20456;-75
2023/01/28 03:55:59;;;;;;;10.70;8.60;;;;;;;;;;5111244;27;20896;-75
2023/01/28 03:58:45;;;;;;;11.97;8.60;;;;;;;;;;5096758;27;20491;-75
2023/01/28 04:01:11;;;;;;;11.13;9.07;;;;;;;;;;5080201;27;20899;-75
2023/01/28 04:03:38;;;;;;;11.75;8.80;;;;;;;;;;5112573;27;20459;-75
2023/01/28 04:06:05;;;;;;;12.20;8.45;;;;;;;;;;5100274;27;20414;-75
2023/01/28 04:08:32;;;;;;;11.18;9.02;;;;;;;;;;5101982;28;20420;-75
2023/01/28 04:10:59;;;;;;;12.18;8.93;;;;;;;;;;5110040;27;20757;-75
2023/01/28 04:13:25;;;;;;;12.57;9.63;;;;;;;;;;5103405;27;20446;-75
2023/01/28 04:15:51;;;;;;;11.63;8.90;;;;;;;;;;5117693;27;20431;-75
2023/01/28 04:18:18;;;;;;;10.43;8.57;;;;;;;;;;5113749;27;20408;-79
2023/01/28 04:20:44;;;;;;;10.63;8.65;;;;;;;;;;5077981;28;20913;-79
2023/01/28 04:23:10;;;;;;;10.20;8.18;;;;;;;;;;5112082;27;20415;-75
2023/01/28 04:25:36;;;;;;;11.63;9.32;;;;;;;;;;5094481;28;20449;-75
2023/01/28 04:28:02;;;;;;;13.20;9.30;;;;;;;;;;5099707;27;20431;-75
2023/01/28 04:30:28;;;;;;;11.30;8.95;;;;;;;;;;5111443;28;20439;-75
2023/01/28 04:32:54;;;;;;;11.88;9.27;;;;;;;;;;5106636;27;20422;-75
2023/01/28 04:35:20;;;;;;;10.75;8.75;;;;;;;;;;5094704;28;20476;-75
2023/01/28 04:37:46;;;;;;;10.60;8.50;;;;;;;;;;5110305;27;20481;-75
2023/01/28 04:40:13;;;;;;;12.00;8.25;;;;;;;;;;5091652;27;20821;-75
2023/01/28 04:42:39;;;;;;;10.23;8.13;;;;;;;;;;5108430;27;20414;-75
2023/01/28 04:45:05;;;;;;;11.65;9.00;;;;;;;;;;5113625;27;20484;-75
2023/01/28 04:47:31;;;;;;;12.95;9.00;;;;;;;;;;5123735;27;20464;-75
2023/01/28 04:49:57;;;;;;;11.63;8.95;;;;;;;;;;5117734;27;20415;-75
2023/01/28 04:52:23;;;;;;;11.80;9.23;;;;;;;;;;5111844;27;20503;-75
2023/01/28 04:54:50;;;;;;;12.40;8.75;;;;;;;;;;5115266;27;20412;-75
2023/01/28 04:57:16;;;;;;;11.43;9.07;;;;;;;;;;5101312;27;21104;-76
2023/01/28 04:59:42;;;;;;;12.13;8.70;;;;;;;;;;5111605;27;20410;-75
2023/01/28 05:02:08;;;;;;;12.53;9.13;;;;;;;;;;5100879;28;20508;-76
2023/01/28 05:04:34;;;;;;;12.02;8.63;;;;;;;;;;5098915;28;20453;-75
2023/01/28 05:07:01;;;;;;;11.82;8.70;;;;;;;;;;5130148;27;20420;-76
2023/01/28 05:09:27;;;;;;;11.95;8.60;;;;;;;;;;5096837;28;20776;-76
2023/01/28 05:11:53;;;;;;;11.57;8.63;;;;;;;;;;5109907;28;20435;-76
2023/01/28 05:14:19;;;;;;;11.02;8.50;;;;;;;;;;5115718;27;20416;-80
2023/01/28 05:16:45;;;;;;;13.30;10.70;;;;;;;;;;5114278;28;21154;-79
2023/01/28 05:19:11;;;;;;;13.25;9.07;;;;;;;;;;5129263;28;20410;-80
2023/01/28 05:21:37;;;;;;;11.52;8.63;;;;;;;;;;5129843;28;20405;-80
2023/01/28 05:24:03;;;;;;;11.60;8.77;;;;;;;;;;5121872;28;20435;-81
2023/01/28 05:26:29;;;;;;;11.45;8.75;;;;;;;;;;5102916;28;20416;-80
2023/01/28 05:28:55;;;;;;;12.75;9.30;;;;;;;;;;5093008;28;20522;-80
2023/01/28 05:31:22;;;;;;;11.05;8.75;;;;;;;;;;5112432;28;20418;-79
2023/01/28 05:33:48;;;;;;;11.20;9.20;;;;;;;;;;5130496;28;20807;-80
2023/01/28 05:36:14;;;;;;;11.20;8.75;;;;;;;;;;5129214;28;20398;-80
2023/01/28 05:38:40;;;;;;;11.03;8.93;;;;;;;;;;5114461;28;20417;-80
2023/01/28 05:41:06;;;;;;;11.82;8.90;;;;;;;;;;5112581;28;20412;-80
2023/01/28 05:43:32;;;;;;;11.13;8.60;;;;;;;;;;5093848;28;20400;-80
2023/01/28 05:45:58;;;;;;;11.30;8.75;;;;;;;;;;5094859;28;20408;-79
2023/01/28 05:48:24;;;;;;;11.38;8.52;;;;;;;;;;5108972;28;20440;-80
2023/01/28 05:50:50;;;;;;;10.50;8.48;;;;;;;;;;5095672;28;20411;-80
2023/01/28 05:53:16;;;;;;;10.35;8.60;;;;;;;;;;5125413;28;20505;-76
2023/01/28 05:55:42;;;;;;;11.23;8.80;;;;;;;;;;5119101;27;20779;-76
2023/01/28 05:58:08;;;;;;;12.13;8.88;;;;;;;;;;5111437;28;20408;-75
2023/01/28 06:00:34;;;;;;;11.55;8.95;;;;;;;;;;5111083;28;20491;-76
2023/01/28 06:03:00;;;;;;;11.52;9.10;;;;;;;;;;5093127;28;20427;-75
2023/01/28 06:05:26;;;;;;;10.98;9.13;;;;;;;;;;5096769;28;20471;-75
2023/01/28 06:07:52;;;;;;;12.53;9.27;;;;;;;;;;5096299;28;20759;-75
2023/01/28 06:10:19;;;;;;;12.32;9.48;;;;;;;;;;5108351;28;20832;-75
2023/01/28 06:12:45;;;;;;;11.77;9.02;;;;;;;;;;5091071;28;20417;-75
2023/01/28 06:15:11;;;;;;;12.55;9.23;;;;;;;;;;5095636;28;20410;-75
2023/01/28 06:17:37;;;;;;;13.50;9.55;;;;;;;;;;5110805;28;20417;-75
2023/01/28 06:20:03;;;;;;;12.35;9.40;;;;;;;;;;5108538;28;20411;-75
2023/01/28 06:22:29;;;;;;;11.80;9.40;;;;;;;;;;5122260;27;20415;-75
2023/01/28 06:24:55;;;;;;;14.90;11.35;;;;;;;;;;5124454;27;20412;-75
2023/01/28 06:27:21;;;;;;;13.10;10.35;;;;;;;;;;5115371;27;20407;-75
2023/01/28 06:29:47;;;;;;;14.23;11.20;;;;;;;;;;5115254;27;20808;-75
2023/01/28 06:32:13;;;;;;;15.80;11.10;;;;;;;;;;5101510;27;20440;-75
2023/01/28 06:34:39;;;;;;;13.50;10.25;;;;;;;;;;5116118;27;20420;-75
2023/01/28 06:37:06;;;;;;;14.38;11.07;;;;;;;;;;5092979;28;20412;-76
2023/01/28 06:39:32;;;;;;;15.02;11.02;;;;;;;;;;5113568;27;20449;-76
2023/01/28 06:41:58;;;;;;;12.77;9.20;;;;;;;;;;5118330;27;20420;-76
2023/01/28 06:44:24;;;;;;;12.40;8.93;;;;;;;;;;5119648;28;20396;-76
2023/01/28 06:46:50;;;;;;;13.00;9.15;;;;;;;;;;5109074;27;20414;-76
2023/01/28 06:49:16;;;;;;;11.20;8.98;;;;;;;;;;5109073;28;20420;-76
2023/01/28 06:51:42;;;;;;;11.07;8.33;;;;;;;;;;5114951;27;20934;-76
2023/01/28 06:54:08;;;;;;;11.80;8.60;;;;;;;;;;5098327;28;20451;-76
2023/01/28 06:56:34;;;;;;;14.10;10.00;;;;;;;;;;5114191;27;20424;-75
2023/01/28 06:59:01;;;;;;;12.90;9.23;;;;;;;;;;5113454;28;20408;-76
2023/01/28 07:01:27;;;;;;;10.57;8.38;;;;;;;;;;5119601;27;20486;-76
2023/01/28 07:03:53;;;;;;;13.30;9.82;;;;;;;;;;5131025;27;20403;-75
2023/01/28 07:06:19;;;;;;;10.40;8.40;;;;;;;;;;5114350;27;20434;-75
2023/01/28 07:08:45;;;;;;;13.27;9.25;;;;;;;;;;5099324;28;20416;-75
2023/01/28 07:11:11;;;;;;;14.00;9.70;;;;;;;;;;5120985;27;20421;-76
2023/01/28 07:13:37;;;;;;;13.10;9.27;;;;;;;;;;5136731;27;20425;-77
2023/01/28 07:16:03;;;;;;;11.68;8.52;;;;;;;;;;5131756;27;20938;-78
2023/01/28 07:18:30;;;;;;;11.75;8.90;;;;;;;;;;5111574;28;20503;-78
2023/01/28 07:20:56;;;;;;;12.30;10.32;;;;;;;;;;5105019;27;20420;-78
2023/01/28 07:23:22;;;;;;;13.45;9.52;;;;;;;;;;5109598;27;20476;-78
2023/01/28 07:25:48;;;;;;;12.70;9.38;;;;;;;;;;5132487;27;20433;-76
2023/01/28 07:28:20;;;;;;;10.73;8.73;;;;;;;;;;5115363;27;20420;-77
2023/01/28 07:30:47;;;;;;;13.43;9.90;;;;;;;;;;5115965;27;20421;-81
2023/01/28 07:33:13;;;;;;;15.98;10.88;;;;;;;;;;5098992;28;20420;-81
2023/01/28 07:35:39;;;;;;;13.23;9.40;;;;;;;;;;5118945;27;20939;-80
2023/01/28 07:38:05;;;;;;;13.05;8.95;;;;;;;;;;5130704;27;20418;-81
2023/01/28 07:40:31;;;;;;;12.75;9.25;;;;;;;;;;5100395;28;20424;-81
2023/01/28 07:42:57;;;;;;;12.77;9.50;;;;;;;;;;5116258;27;20756;-81
2023/01/28 07:45:24;;;;;;;12.25;9.55;;;;;;;;;;5118773;27;20455;-81
2023/01/28 07:47:54;;;;;;;12.10;9.40;;;;;;;;;;5095030;27;20420;-81
2023/01/28 07:50:21;;;;;;;12.77;9.95;;;;;;;;;;5101989;27;20424;-78
2023/01/28 07:52:47;;;;;;;12.63;9.65;;;;;;;;;;5122625;27;20414;-80
2023/01/28 07:55:15;;;;;;;12.80;9.93;;;;;;;;;;5097214;28;20424;-81
2023/01/28 07:57:55;;;;;;;13.02;10.05;;;;;;;;;;5122742;27;20419;-80
2023/01/28 08:00:22;;;;;;;22.33;10.82;;;;;;;;;;5109977;27;20505;-77
2023/01/28 08:02:49;;;;;;;14.38;11.32;;;;;;;;;;5124188;27;20422;-76
2023/01/28 08:05:19;;;;;;;14.20;11.27;;;;;;;;;;5091962;28;20764;-74
2023/01/28 08:07:47;;;;;;;14.53;11.77;;;;;;;;;;5098815;28;21088;-75
2023/01/28 08:10:13;;;;;;;14.00;10.43;;;;;;;;;;5095825;27;20418;-75
2023/01/28 08:12:40;;;;;;;13.77;10.07;;;;;;;;;;5109330;27;20428;-75
2023/01/28 08:15:06;;;;;;;13.27;10.23;;;;;;;;;;5115300;27;20872;-74
2023/01/28 08:17:32;;;;;;;13.10;9.23;;;;;;;;;;5102759;27;20404;-77
2023/01/28 08:19:59;;;;;;;11.93;9.60;;;;;;;;;;5121317;27;20412;-76
2023/01/28 08:22:25;;;;;;;11.80;9.40;;;;;;;;;;5090192;27;21030;-76
2023/01/28 08:24:51;;;;;;;12.77;9.35;;;;;;;;;;5097095;27;20415;-76
2023/01/28 08:27:18;;;;;;;13.13;9.52;;;;;;;;;;5109415;27;20418;-76
2023/01/28 08:29:44;;;;;;;12.20;9.20;;;;;;;;;;5094869;28;20407;-76
2023/01/28 08:32:10;;;;;;;11.88;9.25;;;;;;;;;;5108702;27;20427;-76
2023/01/28 08:34:36;;;;;;;11.88;9.15;;;;;;;;;;5122423;27;20424;-76
2023/01/28 08:37:04;;;;;;;13.07;9.15;;;;;;;;;;5094523;27;20953;-76
2023/01/28 08:39:30;;;;;;;11.23;8.73;;;;;;;;;;5093909;28;20418;-76
2023/01/28 08:41:56;;;;;;;11.52;8.95;;;;;;;;;;5110243;27;20408;-76
2023/01/28 08:44:22;;;;;;;12.82;8.90;;;;;;;;;;5125005;27;20418;-77
2023/01/28 08:46:48;;;;;;;11.30;8.73;;;;;;;;;;5129161;27;20774;-76
2023/01/28 08:49:14;;;;;;;11.50;8.90;;;;;;;;;;5105342;27;20411;-77
2023/01/28 08:51:41;;;;;;;12.48;8.88;;;;;;;;;;5109199;27;20880;-77
2023/01/28 08:54:07;;;;;;;10.20;7.85;;;;;;;;;;5091525;27;20418;-77
2023/01/28 08:56:33;;;;;;;11.75;8.70;;;;;;;;;;5104433;28;20424;-76
2023/01/28 08:58:59;;;;;;;11.82;8.10;;;;;;;;;;5084237;28;20499;-76
2023/01/28 09:01:28;;;;;;;11.95;8.50;;;;;;;;;;5097549;28;20416;-77
2023/01/28 09:03:54;;;;;;;11.52;8.30;;;;;;;;;;5087257;28;20499;-76
2023/01/28 09:06:23;;;;;;;11.48;8.75;;;;;;;;;;5126728;27;20791;-76
2023/01/28 09:08:49;;;;;;;11.95;8.70;;;;;;;;;;5112399;27;20417;-76
2023/01/28 09:11:15;;;;;;;13.30;9.00;;;;;;;;;;5098870;28;21085;-76
2023/01/28 09:13:41;;;;;;;13.13;9.80;;;;;;;;;;5121453;27;20496;-76
2023/01/28 09:16:07;;;;;;;12.20;9.25;;;;;;;;;;5089371;28;20753;-76
2023/01/28 09:18:33;;;;;;;11.88;8.55;;;;;;;;;;5116233;27;20431;-76
2023/01/28 09:21:00;;;;;;;11.35;8.68;;;;;;;;;;5108778;27;20416;-75
2023/01/28 09:23:26;;;;;;;11.18;8.63;;;;;;;;;;5100668;28;20425;-76
2023/01/28 09:25:59;;;;;;;12.15;8.50;;;;;;;;;;5116733;28;20421;-75
2023/01/28 09:28:25;;;;;;;11.55;8.68;;;;;;;;;;5116572;28;20833;-74
2023/01/28 09:30:51;;;;;;;11.80;8.60;;;;;;;;;;5090745;28;20419;-74
2023/01/28 09:33:17;;;;;;;11.45;8.80;;;;;;;;;;5119501;28;20414;-74
2023/01/28 09:35:43;;;;;;;12.63;9.27;;;;;;;;;;5097801;28;20412;-74
2023/01/28 09:38:09;;;;;;;12.10;8.93;;;;;;;;;;5091583;28;20810;-74
2023/01/28 09:40:37;;;;;;;13.05;9.32;;;;;;;;;;5108306;28;20410;-80
2023/01/28 09:43:24;;;;;;;13.20;8.93;;;;;;;;;;5120409;27;20426;-80
2023/01/28 09:45:52;;;;;;;12.52;9.07;;;;;;;;;;5116326;28;20397;-81
2023/01/28 09:48:32;;;;;;;10.57;8.60;;;;;;;;;;5109865;28;20526;-80
2023/01/28 09:50:59;;;;;;;11.57;8.57;;;;;;;;;;5111175;27;20502;-75
2023/01/28 09:53:29;;;;;;;12.05;8.93;;;;;;;;;;5099405;28;20422;-75
2023/01/28 09:55:56;;;;;;;10.95;8.65;;;;;;;;;;5116156;27;20917;-76
2023/01/28 09:58:22;;;;;;;12.10;8.93;;;;;;;;;;5101161;28;20515;-75
2023/01/28 10:01:16;;;;;;;10.65;8.63;;;;;;;;;;5091387;27;20751;-75
2023/01/28 10:03:51;;;;;;;10.80;8.50;;;;;;;;;;5105745;27;20429;-76
2023/01/28 10:06:20;;;;;;;11.93;9.05;;;;;;;;;;5119597;27;20942;-75
2023/01/28 10:09:05;;;;;;;11.93;8.93;;;;;;;;;;5124310;27;20427;-75
2023/01/28 10:11:34;;;;;;;12.15;9.23;;;;;;;;;;5097526;27;20503;-75
2023/01/28 10:14:04;;;;;;;10.95;8.80;;;;;;;;;;5096737;27;20444;-75
2023/01/28 10:16:39;;;;;;;10.90;9.10;;;;;;;;;;5110954;27;20489;-75
2023/01/28 10:19:26;;;;;;;10.70;8.98;;;;;;;;;;5122354;27;20545;-75
2023/01/28 10:21:58;;;;;;;11.00;8.52;;;;;;;;;;5112953;27;20498;-75
2023/01/28 10:24:29;;;;;;;11.45;8.50;;;;;;;;;;5115328;27;20420;-75
2023/01/28 10:26:56;;;;;;;12.77;9.40;;;;;;;;;;5096124;28;20421;-75
2023/01/28 10:29:27;;;;;;;10.40;8.57;;;;;;;;;;5102660;27;20421;-75
2023/01/28 10:32:02;;;;;;;10.02;7.88;;;;;;;;;;5114314;27;20426;-76
2023/01/28 10:34:28;;;;;;;10.07;8.18;;;;;;;;;;5097167;28;20428;-76
2023/01/28 10:36:55;;;;;;;10.52;7.72;;;;;;;;;;5119814;27;20763;-76
2023/01/28 10:39:23;;;;;;;9.77;7.70;;;;;;;;;;5102160;27;20485;-76
2023/01/28 10:41:49;;;;;;;10.43;7.82;;;;;;;;;;5118665;27;20430;-76
2023/01/28 10:44:25;;;;;;;10.48;8.15;;;;;;;;;;5088308;27;20784;-74
2023/01/28 10:46:53;;;;;;;12.50;7.70;;;;;;;;;;5118497;27;20780;-82
2023/01/28 10:49:24;;;;;;;11.32;7.85;;;;;;;;;;5121588;27;20442;-81
2023/01/28 10:51:50;;;;;;;9.33;7.63;;;;;;;;;;5116799;27;20478;-81
2023/01/28 10:54:18;;;;;;;10.93;7.68;;;;;;;;;;5095749;27;20667;-80
2023/01/28 10:56:44;;;;;;;9.82;7.78;;;;;;;;;;5116795;27;20459;-80
2023/01/28 10:59:26;;;;;;;11.27;9.38;;;;;;;;;;5091656;28;20907;-80
2023/01/28 11:01:54;;;;;;;11.07;8.63;;;;;;;;;;5106173;27;20448;-80
2023/01/28 11:04:29;;;;;;;11.15;8.55;;;;;;;;;;5130408;27;20423;-79
2023/01/28 11:06:55;;;;;;;11.40;9.15;;;;;;;;;;5110093;27;20418;-81
2023/01/28 11:13:04;;;;;;;14.40;8.35;;;;;;;;;;5109800;27;20416;-81
2023/01/28 11:15:33;;;;;;;11.43;8.35;;;;;;;;;;5124548;27;20421;-83
2023/01/28 11:18:06;;;;;;;10.95;8.52;;;;;;;;;;5130056;27;20425;-83
2023/01/28 11:20:36;;;;;;;11.13;8.73;;;;;;;;;;5122853;27;20396;-83
2023/01/28 11:23:02;;;;;;;11.93;8.80;;;;;;;;;;5127490;27;20915;-83
2023/01/28 11:25:30;;;;;;;12.05;8.80;;;;;;;;;;5118007;27;20795;-84
2023/01/28 11:27:56;;;;;;;12.45;9.10;;;;;;;;;;5117171;27;20420;-82
2023/01/28 11:30:24;;;;;;;14.05;9.57;;;;;;;;;;5126469;27;20406;-82
2023/01/28 11:33:09;;;;;;;14.35;9.63;;;;;;;;;;5114164;27;20422;-82
2023/01/28 11:35:35;;;;;;;13.60;9.90;;;;;;;;;;5133932;27;20424;-82
2023/01/28 11:38:01;;;;;;;15.75;9.75;;;;;;;;;;5112138;27;20846;-83
2023/01/28 11:40:28;;;;;;;13.85;9.98;;;;;;;;;;5121022;27;20463;-83
2023/01/28 11:42:59;;;;;;;13.63;9.85;;;;;;;;;;5127826;27;20471;-83
2023/01/28 11:45:33;;;;;;;15.32;10.43;;;;;;;;;;5120435;28;20407;-82
2023/01/28 11:48:22;;;;;;;15.73;10.13;;;;;;;;;;5121232;28;20510;-82
2023/01/28 11:50:59;;;;;;;13.82;9.70;;;;;;;;;;5139474;27;20422;-82
2023/01/28 11:53:42;;;;;;;14.80;10.65;;;;;;;;;;5133614;27;20419;-83
2023/01/28 11:56:11;;;;;;;13.00;9.20;;;;;;;;;;5121706;27;20408;-82
2023/01/28 11:58:49;;;;;;;13.95;9.60;;;;;;;;;;5117870;27;20406;-81
2023/01/28 12:01:38;;;;;;;14.23;9.73;;;;;;;;;;5121034;27;20424;-81
2023/01/28 12:04:20;;;;;;;12.75;9.02;;;;;;;;;;5116949;27;20398;-81
2023/01/28 12:06:57;;;;;;;15.63;9.00;;;;;;;;;;5116916;27;20556;-83
2023/01/28 12:09:35;;;;;;;13.40;9.18;;;;;;;;;;5117413;27;20414;-83
2023/01/28 12:12:20;;;;;;;13.07;8.95;;;;;;;;;;5105965;28;20412;-83
2023/01/28 12:14:46;;;;;;;11.73;8.93;;;;;;;;;;5119393;27;20511;-78
2023/01/28 12:17:18;;;;;;;12.10;9.10;;;;;;;;;;5095505;28;20412;-76
2023/01/28 12:20:06;;;;;;;11.95;9.50;;;;;;;;;;5098576;27;20486;-77
2023/01/28 12:22:39;;;;;;;13.17;8.60;;;;;;;;;;5119944;27;20472;-76
2023/01/28 12:25:14;;;;;;;12.40;8.90;;;;;;;;;;5111943;27;20427;-77
2023/01/28 12:28:17;;;;;;;12.00;8.98;;;5.30;99.90;;;;;;5122466;27;20458;-78
2023/01/28 12:30:43;;;;;;;11.98;8.25;;;;;;;;;;5122696;27;22297;-77
2023/01/28 12:33:28;;;;;;;12.30;8.57;;;;;;;;;;5117717;27;20468;-84
2023/01/28 12:36:19;;;;;;;11.27;8.05;;;;;;;;;;5126993;27;20400;-83
2023/01/28 12:39:04;;;;;;;10.53;8.00;;;;;;;;;;5123643;27;20776;-84
2023/01/28 12:41:36;;;;;;;12.93;8.50;;;6.40;99.90;;;;;;5140440;27;20410;-85
2023/01/28 12:44:12;;;;;;;10.43;7.82;;;6.50;99.90;;;;;;5132841;27;20508;-84
2023/01/28 12:47:04;;;;;;;9.38;7.30;;;7.00;99.90;;;;;;5121125;28;20483;-83
2023/01/28 12:49:39;;;;;;;11.05;7.53;;;;;;;;;;5126591;27;20421;-77
2023/01/28 12:52:27;;;;;;;9.53;6.93;;;7.20;99.90;;;;;;5120071;27;20427;-78
2023/01/28 12:55:06;;;;;;;10.60;6.80;;;;;;;;;;5108260;27;20498;-77
2023/01/28 12:57:33;;;;;;;10.63;6.70;;;;;;;;;;5116254;27;20561;-77
2023/01/28 13:00:23;;;;;;;8.95;6.90;;;;;;;;;;5109030;28;20427;-79
2023/01/28 13:03:02;;;;;;;9.02;6.50;;;;;;;;;;5112930;27;20427;-77
2023/01/28 13:05:34;;;;;;;9.80;6.22;;;;;;;;;;5100228;27;20522;-76
2023/01/28 13:08:05;;;;;;;10.37;6.63;;;;;;;;;;5099840;28;20458;-80
2023/01/28 13:10:38;;;;;;;10.73;7.00;;;;;;;;;;5117120;27;20504;-79
2023/01/28 13:13:05;;;;;;;10.23;6.90;;;;;;;;;;5125227;27;20418;-76
2023/01/28 13:15:31;;;;;;;9.13;6.82;;;;;;;;;;5122631;27;20452;-80
2023/01/28 13:18:02;;;;;;;11.75;6.80;;;;;;;;;;5119403;27;20427;-78
2023/01/28 13:20:37;;;;;;;9.85;6.97;;;;;;;;;;5126546;27;21087;-79
2023/01/28 13:23:05;;;;;;;8.97;6.63;;;;;;;;;;5111714;27;20908;-76
2023/01/28 13:25:33;;;;;;;11.05;7.18;;;;;;;;;;5113035;28;20462;-77
2023/01/28 13:28:01;;;;;;;9.10;6.40;;;;;;;;;;5123386;28;20429;-75
2023/01/28 13:30:29;;;;;;;9.50;6.88;;;;;;;;;;5128124;27;20909;-76
2023/01/28 13:32:56;;;;;;;8.68;6.47;;;;;;;;;;5110282;28;20498;-76
2023/01/28 13:35:34;;;;;;;12.68;6.68;;;;;;;;;;5118811;27;20968;-75
2023/01/28 13:38:07;;;;;;;9.52;6.32;;;6.00;99.90;;;;;;5129171;27;20815;-76
2023/01/28 13:40:33;;;;;;;9.30;6.97;;;;;;;;;;5119735;27;20445;-75
2023/01/28 13:43:04;;;;;;;11.95;7.40;;;;;;;;;;5121655;27;20424;-76
2023/01/28 13:45:31;;;;;;;9.93;7.30;;;;;;;;;;5123758;27;20422;-75
2023/01/28 13:48:12;;;;;;;12.45;7.50;;;;;;;;;;5135017;27;20403;-75
2023/01/28 13:50:42;;;;;;;10.02;7.15;;;;;;;;;;5121099;27;20449;-75
2023/01/28 13:53:08;;;;;;;10.82;6.95;;;;;;;;;;5096717;28;20412;-75
2023/01/28 13:55:38;;;;;;;9.85;6.93;;;;;;;;;;5122760;27;20426;-75
2023/01/28 13:58:07;;;;;;;10.00;7.00;;;;;;;;;;5114676;27;20763;-76
2023/01/28 14:00:46;;;;;;;9.75;6.72;;;;;;;;;;5103095;27;20446;-75
2023/01/28 14:03:43;;;;;;;12.27;7.35;;;;;;;;;;5107113;28;20491;-76
2023/01/28 14:06:28;;;;;;;10.02;7.03;;;;;;;;;;5124254;27;20422;-74
2023/01/28 14:08:54;;;;;;;12.23;8.02;;;;;;;;;;5113180;27;20428;-75
2023/01/28 14:11:40;;;;;;;13.80;8.10;;;;;;;;;;5119777;27;20806;-75
2023/01/28 14:14:22;;;;;;;12.10;7.82;;;;;;;;;;5112149;27;20441;-75
2023/01/28 14:16:51;;;;;;;13.13;7.93;;;;;;;;;;5119960;27;20441;-75
2023/01/28 14:19:18;;;;;;;13.25;7.90;;;;;;;;;;5111574;27;20458;-76
2023/01/28 14:21:44;;;;;;;13.10;8.77;;;;;;;;;;5097710;27;20498;-76
2023/01/28 14:24:16;;;;;;;12.47;7.60;;;;;;;;;;5116141;27;20421;-74
2023/01/28 14:26:48;;;;;;;12.23;8.05;;;;;;;;;;5120155;27;20421;-75
2023/01/28 14:29:17;;;;;;;12.07;8.07;;;;;;;;;;5098917;27;21220;-74
2023/01/28 14:31:43;;;;;;;13.63;7.82;;;;;;;;;;5114219;27;20430;-75
2023/01/28 14:34:28;;;;;;;15.90;8.90;;;;;;;;;;5094825;27;20432;-75
2023/01/28 14:36:56;;;;;;;13.65;9.10;;;;;;;;;;5109848;27;20909;-75
2023/01/28 14:39:26;;;;;;;12.77;8.90;;;5.90;99.90;;;;;;5109959;27;20410;-75
2023/01/28 14:41:53;;;;;;;14.55;8.70;;;;;;;;;;5117912;27;20403;-75
2023/01/28 14:44:27;;;;;;;14.32;8.75;;;;;;;;;;5120697;27;20429;-76
2023/01/28 14:47:16;;;;;;;13.93;8.75;;;;;;;;;;5111944;28;20404;-76
2023/01/28 14:49:50;;;;;;;13.40;9.02;;;;;;;;;;5086698;28;20452;-76
2023/01/28 14:52:19;;;;;;;15.20;9.30;;;;;;;;;;5109711;27;20408;-76
2023/01/28 14:54:58;;;;;;;15.30;9.17;;;;;;;;;;5098537;27;20467;-75
2023/01/28 14:57:27;;;;;;;14.40;9.40;;;;;;;;;;5133780;27;20478;-74
2023/01/28 14:59:56;;;;;;;13.45;8.25;;;;;;;;;;5128831;27;20507;-75
2023/01/28 15:02:24;;;;;;;13.45;7.95;;;;;;;;;;5097075;27;20420;-75
2023/01/28 15:04:50;;;;;;;11.93;7.88;;;;;;;;;;5113643;27;20856;-75
2023/01/28 15:07:19;;;;;;;13.02;7.55;;;;;;;;;;5113744;27;20412;-75
2023/01/28 15:09:45;;;;;;;12.07;8.20;;;;;;;;;;5123927;27;20437;-75
2023/01/28 15:12:12;;;;;;;13.10;8.35;;;;;;;;;;5112340;27;20412;-76
2023/01/28 15:14:39;;;;;;;14.93;9.10;;;;;;;;;;5095702;28;20459;-77
2023/01/28 15:17:05;;;;;;;12.60;7.73;;;;;;;;;;5127234;27;20430;-75
2023/01/28 15:19:35;;;;;;;11.95;7.40;;;;;;;;;;5096490;28;20416;-75
2023/01/28 15:22:03;;;;;;;12.93;7.13;;;;;;;;;;5121494;27;20438;-74